createdAt,value
2022-12-26T00:01:12.755Z,101732.66
2022-12-26T00:03:40.204Z,101736.72
2022-12-26T00:06:16.291Z,101739.13
2022-12-26T00:08:44.535Z,101743.13
2022-12-26T00:11:12.270Z,101745.41
2022-12-26T00:13:42.807Z,101745.09
2022-12-26T00:16:12.372Z,101752.19
2022-12-26T00:18:39.950Z,101743.13
2022-12-26T00:21:08.690Z,101748.06
2022-12-26T00:23:36.535Z,101753.25
2022-12-26T00:26:05.648Z,101754.50
2022-12-26T00:28:32.588Z,101754.28
2022-12-26T00:31:03.052Z,101762.44
2022-12-26T00:33:30.143Z,101761.88
2022-12-26T00:36:05.311Z,101765.84
2022-12-26T00:38:32.304Z,101767.16
2022-12-26T00:40:59.311Z,101765.63
2022-12-26T00:43:26.500Z,101763.53
2022-12-26T00:45:53.451Z,101776.91
2022-12-26T00:48:20.532Z,101777.00
2022-12-26T00:50:47.534Z,101772.72
2022-12-26T00:53:14.515Z,101771.94
2022-12-26T00:55:41.390Z,101765.03
2022-12-26T00:58:08.495Z,101773.25
2022-12-26T01:00:35.817Z,101774.75
2022-12-26T01:03:03.290Z,101770.03
2022-12-26T01:05:30.439Z,101765.91
2022-12-26T01:08:21.184Z,101772.72
2022-12-26T01:10:46.772Z,101764.59
2022-12-26T01:13:14.621Z,101766.84
2022-12-26T01:15:48.234Z,101768.22
2022-12-26T01:18:15.340Z,101759.72
2022-12-26T01:20:42.453Z,101764.94
2022-12-26T01:23:09.478Z,101766.34
2022-12-26T01:25:36.423Z,101766.34
2022-12-26T01:28:23.503Z,101776.19
2022-12-26T01:30:50.739Z,101781.16
2022-12-26T01:33:17.686Z,101771.97
2022-12-26T01:35:52.055Z,101766.25
2022-12-26T01:38:19.309Z,101765.69
2022-12-26T01:40:47.086Z,101774.94
2022-12-26T01:43:15.856Z,101765.09
2022-12-26T01:45:49.861Z,101762.13
2022-12-26T01:48:33.537Z,101763.50
2022-12-26T01:51:06.213Z,101752.91
2022-12-26T01:53:48.231Z,101756.16
2022-12-26T01:56:23.887Z,101758.69
2022-12-26T01:58:56.577Z,101768.88
2022-12-26T02:01:29.107Z,101765.94
2022-12-26T02:04:15.217Z,101776.63
2022-12-26T02:06:42.939Z,101774.78
2022-12-26T02:09:10.407Z,101787.03
2022-12-26T02:11:45.397Z,101786.72
2022-12-26T02:14:12.305Z,101787.69
2022-12-26T02:16:41.135Z,101799.69
2022-12-26T02:19:25.041Z,101795.13
2022-12-26T02:22:53.624Z,101799.03
2022-12-26T02:25:35.232Z,101809.63
2022-12-26T02:28:23.752Z,101805.06
2022-12-26T02:30:59.700Z,101807.06
2022-12-26T02:33:41.864Z,101803.81
2022-12-26T02:36:27.408Z,101802.94
2022-12-26T02:39:45.664Z,101802.19
2022-12-26T02:42:17.080Z,101799.63
2022-12-26T02:45:13.475Z,101802.38
2022-12-26T02:47:52.346Z,101798.53
2022-12-26T02:50:40.837Z,101797.56
2022-12-26T02:53:39.090Z,101796.50
2022-12-26T02:56:53.532Z,101801.28
2022-12-26T02:59:53.772Z,101798.47
2022-12-26T03:02:55.101Z,101806.81
2022-12-26T03:05:54.848Z,101811.13
2022-12-26T03:08:49.545Z,101800.69
2022-12-26T03:26:40.665Z,101809.06
2022-12-26T03:29:34.492Z,101792.44
2022-12-26T03:32:03.422Z,101791.09
2022-12-26T03:34:30.451Z,101796.22
2022-12-26T03:37:15.521Z,101803.78
2022-12-26T03:40:32.913Z,101799.72
2022-12-26T03:43:31.238Z,101794.38
2022-12-26T03:46:41.928Z,101793.72
2022-12-26T03:49:48.100Z,101781.97
2022-12-26T03:52:42.453Z,101784.38
2022-12-26T03:56:00.915Z,101791.13
2022-12-26T03:58:55.167Z,101792.13
2022-12-26T04:01:45.780Z,101781.84
2022-12-26T04:04:34.308Z,101788.75
2022-12-26T04:07:56.524Z,101798.63
2022-12-26T04:10:57.365Z,101796.56
2022-12-26T04:13:54.795Z,101801.84
2022-12-26T04:17:03.430Z,101804.81
2022-12-26T04:20:04.298Z,101803.41
2022-12-26T04:22:59.995Z,101804.03
2022-12-26T04:25:54.255Z,101804.72
2022-12-26T04:28:41.705Z,101808.25
2022-12-26T04:31:36.009Z,101816.44
2022-12-26T04:34:28.311Z,101806.03
2022-12-26T04:37:19.984Z,101811.94
2022-12-26T04:40:10.668Z,101805.31
2022-12-26T04:42:57.250Z,101808.38
2022-12-26T04:45:24.402Z,101811.69
2022-12-26T04:48:09.816Z,101809.09
2022-12-26T04:50:37.100Z,101815.44
2022-12-26T04:53:04.019Z,101825.72
2022-12-26T04:55:33.377Z,101839.00
2022-12-26T04:58:00.726Z,101849.34
2022-12-26T05:00:28.925Z,101851.47
2022-12-26T05:03:18.988Z,101863.69
2022-12-26T05:06:07.377Z,101850.28
2022-12-26T05:09:02.243Z,101866.94
2022-12-26T05:11:30.946Z,101860.03
2022-12-26T05:13:59.197Z,101867.41
2022-12-26T05:16:46.351Z,101879.47
2022-12-26T05:19:33.398Z,101878.19
2022-12-26T05:22:20.967Z,101877.59
2022-12-26T05:25:06.587Z,101879.59
2022-12-26T05:27:58.812Z,101887.44
2022-12-26T05:30:26.398Z,101884.09
2022-12-26T05:33:11.732Z,101889.47
2022-12-26T05:35:39.941Z,101892.88
2022-12-26T05:38:09.720Z,101891.22
2022-12-26T05:40:36.869Z,101899.66
2022-12-26T05:43:03.823Z,101896.44
2022-12-26T05:45:32.099Z,101890.59
2022-12-26T05:48:03.329Z,101903.25
2022-12-26T05:50:30.488Z,101891.91
2022-12-26T05:52:59.552Z,101894.78
2022-12-26T05:55:26.850Z,101889.59
2022-12-26T05:57:53.953Z,101897.66
2022-12-26T06:00:23.609Z,101892.03
2022-12-26T06:02:50.751Z,101886.63
2022-12-26T06:05:20.720Z,101898.09
2022-12-26T06:07:50.673Z,101899.31
2022-12-26T06:10:19.803Z,101905.44
2022-12-26T06:12:46.816Z,101902.81
2022-12-26T06:15:13.620Z,101892.53
2022-12-26T06:17:40.596Z,101891.56
2022-12-26T06:20:11.209Z,101887.06
2022-12-26T06:22:38.369Z,101888.63
2022-12-26T06:25:05.844Z,101885.66
2022-12-26T06:27:33.247Z,101890.91
2022-12-26T06:30:00.258Z,101900.25
2022-12-26T06:32:27.191Z,101889.66
2022-12-26T06:34:54.034Z,101882.06
2022-12-26T06:37:20.984Z,101887.13
2022-12-26T06:39:48.015Z,101892.69
2022-12-26T06:42:14.946Z,101890.03
2022-12-26T06:44:41.909Z,101891.38
2022-12-26T06:47:09.164Z,101891.69
2022-12-26T06:49:36.193Z,101885.63
2022-12-26T06:52:03.158Z,101894.44
2022-12-26T06:54:37.265Z,101886.84
2022-12-26T06:57:04.169Z,101899.47
2022-12-26T06:59:31.237Z,101897.38
2022-12-26T07:01:58.551Z,101909.06
2022-12-26T07:04:26.199Z,101908.91
2022-12-26T07:06:53.194Z,101918.78
2022-12-26T07:09:20.353Z,101913.00
2022-12-26T07:11:49.603Z,101923.41
2022-12-26T07:14:17.416Z,101916.44
2022-12-26T07:16:45.365Z,101924.06
2022-12-26T07:19:13.890Z,101924.41
2022-12-26T07:21:41.628Z,101929.06
2022-12-26T07:24:15.151Z,101918.69
2022-12-26T07:26:42.301Z,101909.31
2022-12-26T07:29:12.097Z,101910.88
2022-12-26T07:31:39.663Z,101917.97
2022-12-26T07:34:07.115Z,101915.44
2022-12-26T07:36:34.080Z,101924.66
2022-12-26T07:39:00.918Z,101935.06
2022-12-26T07:41:47.848Z,101930.81
2022-12-26T07:44:14.855Z,101926.13
2022-12-26T07:46:41.810Z,101928.78
2022-12-26T07:49:09.195Z,101936.25
2022-12-26T07:51:36.098Z,101933.03
2022-12-26T07:54:08.874Z,101928.16
2022-12-26T07:56:37.923Z,101934.09
2022-12-26T07:59:04.937Z,101933.44
2022-12-26T08:01:31.942Z,101927.56
2022-12-26T08:03:59.111Z,101929.47
2022-12-26T08:06:26.034Z,101932.63
2022-12-26T08:08:52.924Z,101927.50
2022-12-26T08:11:22.999Z,101937.50
2022-12-26T08:13:50.785Z,101925.28
2022-12-26T08:16:18.310Z,101928.41
2022-12-26T08:18:45.243Z,101935.00
2022-12-26T08:21:14.170Z,101925.13
2022-12-26T08:23:41.433Z,101940.16
2022-12-26T08:26:12.138Z,101940.75
2022-12-26T08:28:42.044Z,101943.94
2022-12-26T08:31:10.476Z,101940.16
2022-12-26T08:33:37.515Z,101926.97
2022-12-26T08:36:06.131Z,101919.78
2022-12-26T08:38:34.003Z,101913.84
2022-12-26T08:41:01.430Z,101912.72
2022-12-26T08:43:53.222Z,101902.72
2022-12-26T08:46:16.686Z,101906.81
2022-12-26T08:48:43.893Z,101896.88
2022-12-26T08:51:20.024Z,101892.22
2022-12-26T08:53:49.655Z,101900.91
2022-12-26T08:56:19.687Z,101896.00
2022-12-26T08:58:47.729Z,101903.69
2022-12-26T09:01:21.001Z,101901.81
2022-12-26T09:03:48.333Z,101891.25
2022-12-26T09:06:15.875Z,101894.69
2022-12-26T09:08:42.981Z,101884.41
2022-12-26T09:11:15.715Z,101880.38
2022-12-26T09:13:44.318Z,101874.31
2022-12-26T09:16:15.563Z,101877.53
2022-12-26T09:18:43.577Z,101870.84
2022-12-26T09:21:11.945Z,101852.00
2022-12-26T09:23:40.330Z,101852.50
2022-12-26T09:26:13.511Z,101848.47
2022-12-26T09:28:41.021Z,101844.59
2022-12-26T09:31:11.981Z,101837.56
2022-12-26T09:33:39.574Z,101837.97
2022-12-26T09:36:14.184Z,101838.56
2022-12-26T09:38:42.409Z,101843.38
2022-12-26T09:41:24.291Z,101844.19
2022-12-26T09:44:18.821Z,101833.34
2022-12-26T09:47:08.216Z,101837.31
2022-12-26T09:49:40.726Z,101825.31
2022-12-26T09:52:21.008Z,101824.91
2022-12-26T09:54:58.937Z,101825.63
2022-12-26T09:57:41.762Z,101836.59
2022-12-26T10:00:18.813Z,101831.34
2022-12-26T10:02:53.228Z,101828.03
2022-12-26T10:05:29.096Z,101833.94
2022-12-26T10:08:03.640Z,101835.00
2022-12-26T10:10:42.844Z,101826.97
2022-12-26T10:13:44.082Z,101827.19
2022-12-26T10:16:38.073Z,101826.78
2022-12-26T10:19:32.677Z,101831.19
2022-12-26T10:22:32.478Z,101827.34
2022-12-26T10:25:01.719Z,101826.13
2022-12-26T10:27:34.996Z,101814.22
2022-12-26T10:30:06.426Z,101810.09
2022-12-26T10:32:46.830Z,101812.53
2022-12-26T10:35:37.696Z,101804.16
2022-12-26T10:38:13.374Z,101804.09
2022-12-26T10:40:44.637Z,101806.91
2022-12-26T10:43:20.280Z,101805.16
2022-12-26T10:46:18.270Z,101811.38
2022-12-26T10:48:46.107Z,101805.47
2022-12-26T10:51:14.128Z,101810.63
2022-12-26T10:53:47.237Z,101794.53
2022-12-26T10:56:18.234Z,101808.31
2022-12-26T10:58:49.557Z,101794.75
2022-12-26T11:01:30.121Z,101799.69
2022-12-26T11:03:59.822Z,101800.88
2022-12-26T11:06:43.044Z,101801.13
2022-12-26T11:09:28.698Z,101795.66
2022-12-26T11:11:58.591Z,101789.38
2022-12-26T11:14:33.288Z,101772.53
2022-12-26T11:17:14.127Z,101770.28
2022-12-26T11:19:42.905Z,101767.31
2022-12-26T11:22:23.414Z,101772.09
2022-12-26T11:25:12.316Z,101765.94
2022-12-26T11:27:54.058Z,101757.97
2022-12-26T11:30:32.711Z,101759.72
2022-12-26T11:33:30.743Z,101766.56
2022-12-26T11:36:17.573Z,101755.69
2022-12-26T11:38:56.047Z,101755.28
2022-12-26T11:41:32.414Z,101748.13
2022-12-26T11:44:05.576Z,101749.50
2022-12-26T11:46:41.526Z,101738.09
2022-12-26T11:49:37.868Z,101746.44
2022-12-26T11:52:35.266Z,101743.09
2022-12-26T11:55:02.427Z,101742.47
2022-12-26T11:57:31.734Z,101737.56
2022-12-26T12:00:22.162Z,101738.00
2022-12-26T12:02:49.418Z,101740.00
2022-12-26T12:05:28.652Z,101741.06
2022-12-26T12:08:14.210Z,101736.41
2022-12-26T12:11:09.610Z,101737.09
2022-12-26T12:13:51.578Z,101744.00
2022-12-26T12:16:42.816Z,101743.13
2022-12-26T12:19:43.043Z,101731.81
2022-12-26T12:22:18.825Z,101731.94
2022-12-26T12:24:48.499Z,101741.63
2022-12-26T12:27:36.968Z,101731.38
2022-12-26T12:30:29.537Z,101737.75
2022-12-26T12:33:23.582Z,101735.41
2022-12-26T12:35:53.474Z,101741.56
2022-12-26T12:38:56.531Z,101740.41
2022-12-26T12:42:14.644Z,101750.13
2022-12-26T12:45:00.131Z,101746.94
2022-12-26T12:47:42.132Z,101754.72
2022-12-26T12:51:10.187Z,101762.94
2022-12-26T12:53:42.696Z,101750.91
2022-12-26T12:56:41.948Z,101762.91
2022-12-26T12:59:27.802Z,101748.84
2022-12-26T13:02:07.193Z,101747.22
2022-12-26T13:04:42.074Z,101743.84
2022-12-26T13:07:25.252Z,101744.59
2022-12-26T13:10:02.009Z,101740.53
2022-12-26T13:12:36.334Z,101736.06
2022-12-26T13:15:06.886Z,101739.84
2022-12-26T13:17:41.083Z,101741.69
2022-12-26T13:20:40.521Z,101744.81
2022-12-26T13:23:59.793Z,101746.94
2022-12-26T13:27:03.419Z,101739.84
2022-12-26T13:29:39.694Z,101742.91
2022-12-26T13:32:29.731Z,101741.22
2022-12-26T13:34:59.557Z,101730.47
2022-12-26T13:37:35.427Z,101736.31
2022-12-26T13:40:07.261Z,101739.03
2022-12-26T13:42:56.487Z,101730.56
2022-12-26T13:45:35.493Z,101733.34
2022-12-26T13:48:23.180Z,101730.63
2022-12-26T13:51:03.261Z,101746.66
2022-12-26T13:53:34.447Z,101743.59
2022-12-26T13:56:04.532Z,101734.25
2022-12-26T13:58:43.500Z,101736.75
2022-12-26T14:01:53.706Z,101727.94
2022-12-26T14:04:31.019Z,101737.56
2022-12-26T14:07:59.903Z,101738.13
2022-12-26T14:10:48.645Z,101741.19
2022-12-26T14:13:33.795Z,101729.84
2022-12-26T14:16:28.485Z,101734.53
2022-12-26T14:19:21.491Z,101734.00
2022-12-26T14:22:06.062Z,101716.69
2022-12-26T14:25:03.434Z,101715.31
2022-12-26T14:27:42.969Z,101714.56
2022-12-26T14:30:34.735Z,101707.69
2022-12-26T14:33:20.476Z,101699.44
2022-12-26T14:36:00.888Z,101697.78
2022-12-26T14:38:40.917Z,101700.81
2022-12-26T14:41:32.198Z,101702.78
2022-12-26T14:44:21.639Z,101702.22
2022-12-26T14:46:48.430Z,101698.94
2022-12-26T14:49:35.225Z,101691.78
2022-12-26T14:52:32.667Z,101691.53
2022-12-26T14:54:59.707Z,101698.41
2022-12-26T14:57:47.029Z,101691.78
2022-12-26T15:00:34.754Z,101692.63
2022-12-26T15:03:04.724Z,101691.25
2022-12-26T15:05:37.743Z,101686.88
2022-12-26T15:08:22.931Z,101691.84
2022-12-26T15:11:20.250Z,101692.41
2022-12-26T15:29:23.588Z,101684.19
2022-12-26T15:32:13.498Z,101680.34
2022-12-26T15:35:15.474Z,101692.97
2022-12-26T15:37:52.367Z,101687.75
2022-12-26T15:40:32.953Z,101688.03
2022-12-26T15:42:59.833Z,101686.41
2022-12-26T15:45:32.435Z,101675.94
2022-12-26T15:48:04.992Z,101684.44
2022-12-26T15:50:52.643Z,101677.28
2022-12-26T15:53:29.704Z,101680.91
2022-12-26T15:56:02.395Z,101681.72
2022-12-26T15:58:35.330Z,101686.66
2022-12-26T16:01:02.428Z,101687.47
2022-12-26T16:03:29.671Z,101688.28
2022-12-26T16:06:34.996Z,101685.53
2022-12-26T16:09:24.772Z,101690.22
2022-12-26T16:11:56.025Z,101686.41
2022-12-26T16:14:30.997Z,101698.75
2022-12-26T16:17:16.180Z,101695.72
2022-12-26T16:19:48.500Z,101698.47
2022-12-26T16:22:49.581Z,101696.28
2022-12-26T16:25:23.978Z,101702.31
2022-12-26T16:27:55.600Z,101699.28
2022-12-26T16:30:28.705Z,101692.72
2022-12-26T16:32:56.323Z,101686.66
2022-12-26T16:35:27.372Z,101692.41
2022-12-26T16:37:57.158Z,101683.91
2022-12-26T16:40:41.537Z,101691.06
2022-12-26T16:43:17.716Z,101690.22
2022-12-26T16:45:58.903Z,101688.03
2022-12-26T16:48:28.309Z,101689.41
2022-12-26T16:51:01.887Z,101685.28
2022-12-26T16:53:34.491Z,101690.78
2022-12-26T16:56:29.099Z,101684.19
2022-12-26T16:59:17.998Z,101686.38
2022-12-26T17:01:54.989Z,101686.66
2022-12-26T17:04:24.517Z,101679.50
2022-12-26T17:07:04.779Z,101686.94
2022-12-26T17:09:39.403Z,101675.66
2022-12-26T17:12:16.397Z,101682.53
2022-12-26T17:14:47.476Z,101676.78
2022-12-26T17:17:23.196Z,101676.47
2022-12-26T17:19:54.405Z,101673.47
2022-12-26T17:22:27.840Z,101675.38
2022-12-26T17:25:17.517Z,101669.06
2022-12-26T17:27:45.579Z,101662.19
2022-12-26T17:30:27.553Z,101656.13
2022-12-26T17:32:56.085Z,101661.94
2022-12-26T17:35:26.025Z,101669.63
2022-12-26T17:38:01.055Z,101665.50
2022-12-26T17:40:33.785Z,101661.63
2022-12-26T17:43:11.425Z,101659.19
2022-12-26T17:45:46.818Z,101659.19
2022-12-26T17:48:14.329Z,101659.72
2022-12-26T17:50:44.163Z,101654.22
2022-12-26T17:53:36.624Z,101653.09
2022-12-26T17:56:06.650Z,101647.31
2022-12-26T17:58:34.752Z,101651.72
2022-12-26T18:01:02.295Z,101642.94
2022-12-26T18:03:29.417Z,101641.28
2022-12-26T18:05:56.621Z,101637.72
2022-12-26T18:08:38.429Z,101646.81
2022-12-26T18:11:10.939Z,101639.66
2022-12-26T18:13:38.161Z,101644.88
2022-12-26T18:16:05.787Z,101644.88
2022-12-26T18:18:40.848Z,101639.91
2022-12-26T18:21:10.490Z,101627.81
2022-12-26T18:23:37.745Z,101637.16
2022-12-26T18:26:09.143Z,101630.84
2022-12-26T18:28:36.396Z,101628.34
2022-12-26T18:31:03.492Z,101636.34
2022-12-26T18:33:30.291Z,101629.47
2022-12-26T18:35:57.211Z,101631.41
2022-12-26T18:38:24.057Z,101636.06
2022-12-26T18:40:58.111Z,101633.03
2022-12-26T18:43:25.005Z,101625.34
2022-12-26T18:45:53.244Z,101619.28
2022-12-26T18:48:20.356Z,101628.09
2022-12-26T18:50:47.490Z,101630.28
2022-12-26T18:53:14.345Z,101637.16
2022-12-26T18:55:41.573Z,101637.16
2022-12-26T18:58:08.439Z,101630.31
2022-12-26T19:00:36.511Z,101628.41
2022-12-26T19:03:04.132Z,101627.25
2022-12-26T19:05:33.993Z,101623.16
2022-12-26T19:08:01.965Z,101610.81
2022-12-26T19:10:32.357Z,101611.91
2022-12-26T19:13:05.668Z,101608.91
2022-12-26T19:15:36.570Z,101602.88
2022-12-26T19:18:05.169Z,101599.31
2022-12-26T19:20:32.473Z,101591.03
2022-12-26T19:22:59.368Z,101588.56
2022-12-26T19:25:26.786Z,101589.66
2022-12-26T19:27:54.859Z,101578.41
2022-12-26T19:30:22.752Z,101579.50
2022-12-26T19:32:50.623Z,101583.34
2022-12-26T19:35:18.374Z,101569.66
2022-12-26T19:37:45.692Z,101567.16
2022-12-26T19:40:13.659Z,101562.50
2022-12-26T19:42:40.772Z,101557.28
2022-12-26T19:45:10.060Z,101561.16
2022-12-26T19:47:37.674Z,101558.13
2022-12-26T19:50:06.728Z,101554.56
2022-12-26T19:52:36.783Z,101550.72
2022-12-26T19:55:06.368Z,101549.91
2022-12-26T19:57:33.554Z,101565.03
2022-12-26T20:00:00.650Z,101564.75
2022-12-26T20:02:27.741Z,101561.16
2022-12-26T20:04:54.937Z,101559.25
2022-12-26T20:07:21.909Z,101557.59
2022-12-26T20:09:48.973Z,101548.00
2022-12-26T20:12:16.186Z,101550.47
2022-12-26T20:15:03.461Z,101554.03
2022-12-26T20:17:30.613Z,101555.13
2022-12-26T20:19:57.805Z,101547.69
2022-12-26T20:22:24.811Z,101558.97
2022-12-26T20:24:51.766Z,101555.63
2022-12-26T20:27:18.962Z,101550.44
2022-12-26T20:29:46.018Z,101549.63
2022-12-26T20:32:12.894Z,101544.13
2022-12-26T20:34:40.013Z,101543.59
2022-12-26T20:37:07.047Z,101546.03
2022-12-26T20:39:34.085Z,101540.56
2022-12-26T20:42:01.031Z,101540.28
2022-12-26T20:44:28.057Z,101536.16
2022-12-26T20:46:55.243Z,101545.19
2022-12-26T20:49:22.252Z,101531.75
2022-12-26T20:51:49.242Z,101538.38
2022-12-26T20:54:16.796Z,101536.16
2022-12-26T20:56:45.064Z,101529.88
2022-12-26T20:59:12.073Z,101530.16
2022-12-26T21:01:40.566Z,101529.06
2022-12-26T21:04:09.023Z,101523.28
2022-12-26T21:06:37.865Z,101511.50
2022-12-26T21:09:06.828Z,101518.34
2022-12-26T21:11:39.036Z,101522.72
2022-12-26T21:14:10.337Z,101515.88
2022-12-26T21:16:39.895Z,101518.34
2022-12-26T21:19:12.541Z,101510.41
2022-12-26T21:21:44.507Z,101509.53
2022-12-26T21:24:15.306Z,101511.47
2022-12-26T21:26:42.925Z,101500.19
2022-12-26T21:29:15.361Z,101501.88
2022-12-26T21:31:42.629Z,101502.41
2022-12-26T21:34:12.629Z,101496.03
2022-12-26T21:36:40.113Z,101497.16
2022-12-26T21:39:09.322Z,101486.22
2022-12-26T21:41:39.568Z,101484.22
2022-12-26T21:44:06.594Z,101477.03
2022-12-26T21:46:34.495Z,101478.13
2022-12-26T21:49:01.519Z,101468.84
2022-12-26T21:51:29.789Z,101474.25
2022-12-26T21:54:16.654Z,101470.66
2022-12-26T21:56:43.658Z,101455.59
2022-12-26T21:59:49.629Z,101463.78
2022-12-26T22:02:35.314Z,101463.78
2022-12-26T22:05:02.535Z,101464.06
2022-12-26T22:07:29.543Z,101455.03
2022-12-26T22:09:56.432Z,101456.16
2022-12-26T22:12:44.986Z,101449.28
2022-12-26T22:15:30.297Z,101455.03
2022-12-26T22:17:57.763Z,101453.66
2022-12-26T22:20:25.371Z,101448.47
2022-12-26T22:22:52.518Z,101439.69
2022-12-26T22:25:19.934Z,101439.97
2022-12-26T22:27:47.475Z,101427.66
2022-12-26T22:30:14.542Z,101434.22
2022-12-26T22:32:41.541Z,101426.84
2022-12-26T22:35:14.827Z,101433.97
2022-12-26T22:37:45.275Z,101426.31
2022-12-26T22:40:12.625Z,101423.81
2022-12-26T22:42:39.676Z,101424.63
2022-12-26T22:45:07.217Z,101427.88
2022-12-26T22:47:34.158Z,101416.41
2022-12-26T22:50:01.237Z,101411.50
2022-12-26T22:52:28.973Z,101404.34
2022-12-26T22:54:55.995Z,101402.41
2022-12-26T22:57:23.829Z,101396.09
2022-12-26T23:00:08.107Z,101400.75
2022-12-26T23:02:36.123Z,101390.03
2022-12-26T23:05:04.190Z,101395.25
2022-12-26T23:07:31.815Z,101387.84
2022-12-26T23:09:59.300Z,101394.09
2022-12-26T23:12:45.104Z,101403.13
2022-12-26T23:15:18.500Z,101397.63
2022-12-26T23:18:11.465Z,101390.56
2022-12-26T23:20:58.057Z,101391.06
2022-12-26T23:23:25.724Z,101394.66
2022-12-26T23:25:52.779Z,101390.25
2022-12-26T23:28:38.319Z,101389.72
2022-12-26T23:31:05.441Z,101391.09
2022-12-26T23:33:32.797Z,101386.19
2022-12-26T23:36:00.068Z,101379.84
2022-12-26T23:38:27.269Z,101373.31
2022-12-26T23:40:54.325Z,101382.59
2022-12-26T23:43:21.359Z,101372.50
2022-12-26T23:45:48.278Z,101369.50
2022-12-26T23:48:15.447Z,101373.91
2022-12-26T23:50:42.435Z,101376.38
2022-12-26T23:53:09.537Z,101372.53
2022-12-26T23:55:41.811Z,101369.56
2022-12-26T23:58:11.714Z,101370.09
